sensor_id;sensor_type;location;lat;lon;timestamp;pressure;altitude;pressure_sealevel;temperature;humidity
71964;BME280;59834;52.124;5.422;2023-02-12T00:01:25;103893.06;;;6.99;96.68
71964;BME280;59834;52.124;5.422;2023-02-12T00:03:53;103902.59;;;7.00;96.64
71964;BME280;59834;52.124;5.422;2023-02-12T00:06:21;103891.31;;;6.98;96.60
71964;BME280;59834;52.124;5.422;2023-02-12T00:08:50;103902.59;;;6.98;96.50
71964;BME280;59834;52.124;5.422;2023-02-12T00:11:19;103898.25;;;6.97;96.39
71964;BME280;59834;52.124;5.422;2023-02-12T00:13:46;103893.91;;;6.99;96.08
71964;BME280;59834;52.124;5.422;2023-02-12T00:16:15;103891.31;;;6.99;96.56
71964;BME280;59834;52.124;5.422;2023-02-12T00:18:43;103890.44;;;7.02;96.20
71964;BME280;59834;52.124;5.422;2023-02-12T00:21:10;103887.81;;;7.00;96.19
71964;BME280;59834;52.124;5.422;2023-02-12T00:23:39;103894.78;;;7.00;95.92
71964;BME280;59834;52.124;5.422;2023-02-12T00:26:10;103890.44;;;7.02;95.93
71964;BME280;59834;52.124;5.422;2023-02-12T00:28:37;103892.19;;;7.03;96.22
71964;BME280;59834;52.124;5.422;2023-02-12T00:31:06;103896.53;;;7.02;96.44
71964;BME280;59834;52.124;5.422;2023-02-12T00:33:33;103889.59;;;7.04;96.28
71964;BME280;59834;52.124;5.422;2023-02-12T00:36:00;103893.91;;;7.02;95.97
71964;BME280;59834;52.124;5.422;2023-02-12T00:38:27;103895.66;;;7.02;96.09
71964;BME280;59834;52.124;5.422;2023-02-12T00:40:53;103903.44;;;7.00;96.22
71964;BME280;59834;52.124;5.422;2023-02-12T00:43:20;103890.44;;;7.00;96.30
71964;BME280;59834;52.124;5.422;2023-02-12T00:45:46;103889.56;;;7.00;96.48
71964;BME280;59834;52.124;5.422;2023-02-12T00:48:13;103893.03;;;7.00;96.56
71964;BME280;59834;52.124;5.422;2023-02-12T00:50:40;103888.72;;;6.98;96.60
71964;BME280;59834;52.124;5.422;2023-02-12T00:53:09;103898.25;;;6.97;96.37
71964;BME280;59834;52.124;5.422;2023-02-12T00:55:36;103891.31;;;6.98;96.22
71964;BME280;59834;52.124;5.422;2023-02-12T00:58:03;103890.44;;;6.97;96.32
71964;BME280;59834;52.124;5.422;2023-02-12T01:00:29;103895.66;;;6.94;96.36
71964;BME280;59834;52.124;5.422;2023-02-12T01:02:56;103894.78;;;6.92;96.27
71964;BME280;59834;52.124;5.422;2023-02-12T01:05:22;103893.06;;;6.91;96.32
71964;BME280;59834;52.124;5.422;2023-02-12T01:07:50;103895.63;;;6.90;96.04
71964;BME280;59834;52.124;5.422;2023-02-12T01:10:17;103899.09;;;6.87;96.95
71964;BME280;59834;52.124;5.422;2023-02-12T01:12:46;103900.00;;;6.89;96.68
71964;BME280;59834;52.124;5.422;2023-02-12T01:15:13;103900.84;;;6.90;96.60
71964;BME280;59834;52.124;5.422;2023-02-12T01:17:40;103900.00;;;6.88;96.81
71964;BME280;59834;52.124;5.422;2023-02-12T01:20:07;103894.78;;;6.86;96.62
71964;BME280;59834;52.124;5.422;2023-02-12T01:22:35;103896.50;;;6.84;96.99
71964;BME280;59834;52.124;5.422;2023-02-12T01:25:03;103892.16;;;6.86;96.67
71964;BME280;59834;52.124;5.422;2023-02-12T01:27:30;103893.91;;;6.85;96.83
71964;BME280;59834;52.124;5.422;2023-02-12T01:29:57;103900.84;;;6.83;96.79
71964;BME280;59834;52.124;5.422;2023-02-12T01:32:23;103897.38;;;6.84;97.31
71964;BME280;59834;52.124;5.422;2023-02-12T01:34:50;103893.91;;;6.82;96.80
71964;BME280;59834;52.124;5.422;2023-02-12T01:37:16;103897.38;;;6.84;96.77
71964;BME280;59834;52.124;5.422;2023-02-12T01:39:43;103895.63;;;6.83;96.82
71964;BME280;59834;52.124;5.422;2023-02-12T01:42:12;103897.38;;;6.83;96.78
71964;BME280;59834;52.124;5.422;2023-02-12T01:47:39;103902.59;;;6.81;97.15
71964;BME280;59834;52.124;5.422;2023-02-12T01:50:07;103895.63;;;6.80;96.96
71964;BME280;59834;52.124;5.422;2023-02-12T01:52:37;103899.09;;;6.79;96.95
71964;BME280;59834;52.124;5.422;2023-02-12T01:55:07;103897.38;;;6.78;97.02
71964;BME280;59834;52.124;5.422;2023-02-12T01:57:37;103899.97;;;6.77;96.85
71964;BME280;59834;52.124;5.422;2023-02-12T02:00:09;103893.91;;;6.75;97.14
71964;BME280;59834;52.124;5.422;2023-02-12T02:02:37;103894.78;;;6.71;96.96
71964;BME280;59834;52.124;5.422;2023-02-12T02:05:05;103895.63;;;6.68;97.63
71964;BME280;59834;52.124;5.422;2023-02-12T02:07:32;103895.59;;;6.67;97.61
71964;BME280;59834;52.124;5.422;2023-02-12T02:09:59;103884.34;;;6.61;97.73
71964;BME280;59834;52.124;5.422;2023-02-12T02:12:27;103886.94;;;6.54;97.57
71964;BME280;59834;52.124;5.422;2023-02-12T02:15:13;103892.97;;;6.50;98.09
71964;BME280;59834;52.124;5.422;2023-02-12T02:17:45;103896.44;;;6.49;98.03
71964;BME280;59834;52.124;5.422;2023-02-12T02:31:16;103885.19;;;6.53;97.90
71964;BME280;59834;52.124;5.422;2023-02-12T02:33:58;103896.44;;;6.50;97.95
71964;BME280;59834;52.124;5.422;2023-02-12T02:36:43;103886.91;;;6.49;98.17
71964;BME280;59834;52.124;5.422;2023-02-12T02:41:59;103890.38;;;6.50;98.39
71964;BME280;59834;52.124;5.422;2023-02-12T02:44:32;103877.38;;;6.48;98.66
71964;BME280;59834;52.124;5.422;2023-02-12T02:47:03;103882.56;;;6.48;98.57
71964;BME280;59834;52.124;5.422;2023-02-12T02:49:43;103875.63;;;6.47;98.99
71964;BME280;59834;52.124;5.422;2023-02-12T02:52:16;103882.56;;;6.48;98.21
71964;BME280;59834;52.124;5.422;2023-02-12T02:54:47;103886.06;;;6.47;98.47
71964;BME280;59834;52.124;5.422;2023-02-12T02:57:22;103882.56;;;6.48;98.35
71964;BME280;59834;52.124;5.422;2023-02-12T02:59:54;103878.22;;;6.46;98.11
71964;BME280;59834;52.124;5.422;2023-02-12T03:02:31;103869.53;;;6.44;98.48
71964;BME280;59834;52.124;5.422;2023-02-12T03:07:36;103873.88;;;6.40;98.77
71964;BME280;59834;52.124;5.422;2023-02-12T03:10:15;103867.78;;;6.40;98.63
71964;BME280;59834;52.124;5.422;2023-02-12T03:12:54;103864.34;;;6.37;98.04
71964;BME280;59834;52.124;5.422;2023-02-12T03:15:35;103865.19;;;6.35;98.99
71964;BME280;59834;52.124;5.422;2023-02-12T03:18:06;103863.44;;;6.37;99.18
71964;BME280;59834;52.124;5.422;2023-02-12T03:20:47;103866.06;;;6.38;99.15
71964;BME280;59834;52.124;5.422;2023-02-12T03:23:20;103868.66;;;6.38;99.29
71964;BME280;59834;52.124;5.422;2023-02-12T03:25:58;103865.19;;;6.38;98.94
71964;BME280;59834;52.124;5.422;2023-02-12T03:28:32;103866.94;;;6.39;98.88
71964;BME280;59834;52.124;5.422;2023-02-12T03:31:24;103866.91;;;6.36;98.57
71964;BME280;59834;52.124;5.422;2023-02-12T03:36:33;103880.78;;;6.32;98.84
71964;BME280;59834;52.124;5.422;2023-02-12T03:42:02;103885.13;;;6.31;98.44
71964;BME280;59834;52.124;5.422;2023-02-12T03:49:59;103878.19;;;6.35;98.72
71964;BME280;59834;52.124;5.422;2023-02-12T03:52:28;103879.06;;;6.37;98.92
71964;BME280;59834;52.124;5.422;2023-02-12T03:54:55;103873.00;;;6.35;98.85
71964;BME280;59834;52.124;5.422;2023-02-12T03:57:25;103875.59;;;6.35;99.20
71964;BME280;59834;52.124;5.422;2023-02-12T04:00:03;103886.88;;;6.34;98.82
71964;BME280;59834;52.124;5.422;2023-02-12T04:02:29;103888.59;;;6.33;98.83
71964;BME280;59834;52.124;5.422;2023-02-12T04:04:56;103888.59;;;6.33;99.05
71964;BME280;59834;52.124;5.422;2023-02-12T04:07:23;103892.06;;;6.31;99.04
71964;BME280;59834;52.124;5.422;2023-02-12T04:09:49;103896.41;;;6.27;99.19
71964;BME280;59834;52.124;5.422;2023-02-12T04:14:52;103900.72;;;6.21;99.27
71964;BME280;59834;52.124;5.422;2023-02-12T04:26:31;103899.00;;;6.24;99.61
71964;BME280;59834;52.124;5.422;2023-02-12T04:29:27;103901.56;;;6.23;99.29
71964;BME280;59834;52.124;5.422;2023-02-12T04:37:34;103917.19;;;6.26;99.55
71964;BME280;59834;52.124;5.422;2023-02-12T04:40:08;103912.84;;;6.26;99.47
71964;BME280;59834;52.124;5.422;2023-02-12T04:42:44;103911.97;;;6.26;99.50
71964;BME280;59834;52.124;5.422;2023-02-12T04:45:13;103912.88;;;6.28;100.00
71964;BME280;59834;52.124;5.422;2023-02-12T04:47:40;103910.25;;;6.28;100.00
71964;BME280;59834;52.124;5.422;2023-02-12T04:50:07;103915.47;;;6.25;99.56
71964;BME280;59834;52.124;5.422;2023-02-12T04:52:34;103915.47;;;6.25;99.73
71964;BME280;59834;52.124;5.422;2023-02-12T04:55:00;103922.41;;;6.29;99.71
71964;BME280;59834;52.124;5.422;2023-02-12T04:57:27;103911.09;;;6.27;99.60
71964;BME280;59834;52.124;5.422;2023-02-12T04:59:53;103918.03;;;6.23;99.90
71964;BME280;59834;52.124;5.422;2023-02-12T05:02:19;103922.38;;;6.23;99.82
71964;BME280;59834;52.124;5.422;2023-02-12T05:04:48;103918.03;;;6.22;99.67
71964;BME280;59834;52.124;5.422;2023-02-12T05:07:15;103918.03;;;6.20;100.00
71964;BME280;59834;52.124;5.422;2023-02-12T05:09:41;103927.56;;;6.20;99.64
71964;BME280;59834;52.124;5.422;2023-02-12T05:12:08;103923.22;;;6.19;100.00
71964;BME280;59834;52.124;5.422;2023-02-12T05:14:34;103928.41;;;6.16;100.00
71964;BME280;59834;52.124;5.422;2023-02-12T05:17:01;103924.09;;;6.14;100.00
71964;BME280;59834;52.124;5.422;2023-02-12T05:19:27;103927.53;;;6.17;100.00
71964;BME280;59834;52.124;5.422;2023-02-12T05:21:54;103927.56;;;6.20;99.95
71964;BME280;59834;52.124;5.422;2023-02-12T05:24:20;103924.97;;;6.20;99.98
71964;BME280;59834;52.124;5.422;2023-02-12T05:26:48;103927.53;;;6.13;100.00
71964;BME280;59834;52.124;5.422;2023-02-12T05:29:14;103924.06;;;6.08;100.00
71964;BME280;59834;52.124;5.422;2023-02-12T05:31:40;103926.63;;;6.05;99.80
71964;BME280;59834;52.124;5.422;2023-02-12T05:34:09;103917.97;;;6.05;100.00
71964;BME280;59834;52.124;5.422;2023-02-12T05:36:36;103929.22;;;6.07;100.00
71964;BME280;59834;52.124;5.422;2023-02-12T05:39:03;103931.00;;;6.12;100.00
71964;BME280;59834;52.124;5.422;2023-02-12T05:41:29;103929.28;;;6.16;100.00
71964;BME280;59834;52.124;5.422;2023-02-12T05:44:01;103929.31;;;6.18;99.93
71964;BME280;59834;52.124;5.422;2023-02-12T05:46:28;103922.34;;;6.17;100.00
71964;BME280;59834;52.124;5.422;2023-02-12T05:48:54;103924.94;;;6.15;100.00
71964;BME280;59834;52.124;5.422;2023-02-12T05:51:24;103937.97;;;6.20;99.86
71964;BME280;59834;52.124;5.422;2023-02-12T05:53:55;103936.25;;;6.23;99.61
71964;BME280;59834;52.124;5.422;2023-02-12T05:56:25;103931.91;;;6.22;99.96
71964;BME280;59834;52.124;5.422;2023-02-12T05:59:03;103934.53;;;6.24;99.91
71964;BME280;59834;52.124;5.422;2023-02-12T06:01:37;103931.06;;;6.22;100.00
71964;BME280;59834;52.124;5.422;2023-02-12T06:04:06;103937.97;;;6.18;100.00
71964;BME280;59834;52.124;5.422;2023-02-12T06:06:34;103927.56;;;6.20;99.33
71964;BME280;59834;52.124;5.422;2023-02-12T06:09:01;103931.06;;;6.22;99.50
71964;BME280;59834;52.124;5.422;2023-02-12T06:11:27;103934.53;;;6.24;99.72
71964;BME280;59834;52.124;5.422;2023-02-12T06:13:54;103938.00;;;6.24;99.49
71964;BME280;59834;52.124;5.422;2023-02-12T06:16:24;103939.72;;;6.21;99.55
71964;BME280;59834;52.124;5.422;2023-02-12T06:18:52;103942.28;;;6.11;99.46
71964;BME280;59834;52.124;5.422;2023-02-12T06:21:21;103942.25;;;6.05;99.58
71964;BME280;59834;52.124;5.422;2023-02-12T06:23:48;103939.59;;;5.99;100.00
71964;BME280;59834;52.124;5.422;2023-02-12T06:26:16;103935.28;;;6.01;100.00
71964;BME280;59834;52.124;5.422;2023-02-12T06:28:43;103933.53;;;6.03;99.65
71964;BME280;59834;52.124;5.422;2023-02-12T06:33:43;103931.88;;;6.13;99.99
71964;BME280;59834;52.124;5.422;2023-02-12T06:36:10;103931.88;;;6.11;99.46
71964;BME280;59834;52.124;5.422;2023-02-12T06:38:37;103935.34;;;6.10;99.75
71964;BME280;59834;52.124;5.422;2023-02-12T06:41:03;103938.78;;;6.09;99.37
71964;BME280;59834;52.124;5.422;2023-02-12T06:43:30;103937.94;;;6.12;99.36
71964;BME280;59834;52.124;5.422;2023-02-12T06:46:00;103941.41;;;6.12;99.38
71964;BME280;59834;52.124;5.422;2023-02-12T06:48:27;103944.88;;;6.11;98.83
71964;BME280;59834;52.124;5.422;2023-02-12T06:50:54;103943.13;;;6.09;98.97
71964;BME280;59834;52.124;5.422;2023-02-12T06:53:21;103947.44;;;6.05;98.61
71964;BME280;59834;52.124;5.422;2023-02-12T06:55:47;103943.94;;;6.03;99.28
71964;BME280;59834;52.124;5.422;2023-02-12T06:58:14;103950.06;;;6.08;99.27
71964;BME280;59834;52.124;5.422;2023-02-12T07:00:40;103950.94;;;6.12;99.15
71964;BME280;59834;52.124;5.422;2023-02-12T07:03:07;103961.34;;;6.13;98.63
71964;BME280;59834;52.124;5.422;2023-02-12T07:05:33;103959.63;;;6.11;98.62
71964;BME280;59834;52.124;5.422;2023-02-12T07:08:03;103955.25;;;6.08;98.73
71964;BME280;59834;52.124;5.422;2023-02-12T07:10:29;103955.28;;;6.11;98.68
71964;BME280;59834;52.124;5.422;2023-02-12T07:12:56;103956.16;;;6.15;99.11
71964;BME280;59834;52.124;5.422;2023-02-12T07:15:23;103955.31;;;6.18;98.93
71964;BME280;59834;52.124;5.422;2023-02-12T07:17:49;103959.66;;;6.19;98.66
71964;BME280;59834;52.124;5.422;2023-02-12T07:20:16;103970.06;;;6.17;98.45
71964;BME280;59834;52.124;5.422;2023-02-12T07:22:42;103970.91;;;6.14;98.85
71964;BME280;59834;52.124;5.422;2023-02-12T07:25:09;103970.88;;;6.13;98.37
71964;BME280;59834;52.124;5.422;2023-02-12T07:27:36;103972.63;;;6.11;99.03
71964;BME280;59834;52.124;5.422;2023-02-12T07:30:04;103983.00;;;6.09;98.55
71964;BME280;59834;52.124;5.422;2023-02-12T07:32:32;103976.97;;;6.10;98.85
71964;BME280;59834;52.124;5.422;2023-02-12T07:34:59;103987.38;;;6.15;98.69
71964;BME280;59834;52.124;5.422;2023-02-12T07:37:25;103984.78;;;6.20;98.33
71964;BME280;59834;52.124;5.422;2023-02-12T07:39:52;103980.44;;;6.20;98.41
71964;BME280;59834;52.124;5.422;2023-02-12T07:42:18;103992.59;;;6.21;98.33
71964;BME280;59834;52.124;5.422;2023-02-12T07:44:45;103977.03;;;6.24;98.54
71964;BME280;59834;52.124;5.422;2023-02-12T07:47:11;103988.31;;;6.29;98.17
71964;BME280;59834;52.124;5.422;2023-02-12T07:49:37;103990.03;;;6.29;97.15
71964;BME280;59834;52.124;5.422;2023-02-12T07:52:04;103993.50;;;6.29;97.62
71964;BME280;59834;52.124;5.422;2023-02-12T07:54:30;103994.41;;;6.31;97.72
71964;BME280;59834;52.124;5.422;2023-02-12T07:56:57;103991.78;;;6.33;97.21
71964;BME280;59834;52.124;5.422;2023-02-12T07:59:24;103991.78;;;6.31;97.51
71964;BME280;59834;52.124;5.422;2023-02-12T08:01:51;103999.59;;;6.31;97.46
71964;BME280;59834;52.124;5.422;2023-02-12T08:04:23;104000.47;;;6.35;97.37
71964;BME280;59834;52.124;5.422;2023-02-12T08:06:52;103991.81;;;6.34;97.22
71964;BME280;59834;52.124;5.422;2023-02-12T08:09:25;104003.09;;;6.38;97.42
71964;BME280;59834;52.124;5.422;2023-02-12T08:11:53;104001.38;;;6.38;97.10
71964;BME280;59834;52.124;5.422;2023-02-12T08:14:20;104016.97;;;6.38;97.22
71964;BME280;59834;52.124;5.422;2023-02-12T08:16:48;104015.25;;;6.41;96.58
71964;BME280;59834;52.124;5.422;2023-02-12T08:19:16;104014.38;;;6.43;96.47
71964;BME280;59834;52.124;5.422;2023-02-12T08:21:50;104006.59;;;6.46;97.02
71964;BME280;59834;52.124;5.422;2023-02-12T08:24:17;104017.88;;;6.48;96.44
71964;BME280;59834;52.124;5.422;2023-02-12T08:26:44;104019.59;;;6.45;96.64
71964;BME280;59834;52.124;5.422;2023-02-12T08:29:13;104013.53;;;6.50;96.56
71964;BME280;59834;52.124;5.422;2023-02-12T08:31:44;104010.97;;;6.55;96.52
71964;BME280;59834;52.124;5.422;2023-02-12T08:34:18;104024.88;;;6.61;96.04
71964;BME280;59834;52.124;5.422;2023-02-12T08:36:47;104031.84;;;6.66;95.79
71964;BME280;59834;52.124;5.422;2023-02-12T08:39:14;104030.13;;;6.68;94.83
71964;BME280;59834;52.124;5.422;2023-02-12T08:41:41;104030.09;;;6.65;95.25
71964;BME280;59834;52.124;5.422;2023-02-12T08:44:09;104035.28;;;6.63;95.38
71964;BME280;59834;52.124;5.422;2023-02-12T08:46:39;104032.69;;;6.63;95.29
71964;BME280;59834;52.124;5.422;2023-02-12T08:49:10;104043.97;;;6.67;95.32
71964;BME280;59834;52.124;5.422;2023-02-12T08:51:39;104042.28;;;6.72;95.11
71964;BME280;59834;52.124;5.422;2023-02-12T08:54:09;104052.72;;;6.75;95.45
71964;BME280;59834;52.124;5.422;2023-02-12T08:56:36;104047.50;;;6.78;95.07
71964;BME280;59834;52.124;5.422;2023-02-12T08:59:04;104050.97;;;6.77;95.10
71964;BME280;59834;52.124;5.422;2023-02-12T09:01:35;104055.31;;;6.78;94.86
71964;BME280;59834;52.124;5.422;2023-02-12T09:04:25;104047.50;;;6.82;95.65
71964;BME280;59834;52.124;5.422;2023-02-12T09:06:53;104045.78;;;6.83;94.98
71964;BME280;59834;52.124;5.422;2023-02-12T09:09:20;104046.63;;;6.79;95.04
71964;BME280;59834;52.124;5.422;2023-02-12T09:11:47;104046.66;;;6.77;95.10
71964;BME280;59834;52.124;5.422;2023-02-12T09:14:15;104044.03;;;6.76;95.61
71964;BME280;59834;52.124;5.422;2023-02-12T09:16:43;104044.91;;;6.79;95.56
71964;BME280;59834;52.124;5.422;2023-02-12T09:19:12;104042.31;;;6.87;95.98
71964;BME280;59834;52.124;5.422;2023-02-12T09:21:39;104051.00;;;6.91;95.67
71964;BME280;59834;52.124;5.422;2023-02-12T09:24:07;104053.63;;;6.94;94.81
71964;BME280;59834;52.124;5.422;2023-02-12T09:26:34;104052.75;;;6.93;95.23
71964;BME280;59834;52.124;5.422;2023-02-12T09:29:02;104053.63;;;6.97;94.18
71964;BME280;59834;52.124;5.422;2023-02-12T09:31:31;104054.50;;;6.94;95.21
71964;BME280;59834;52.124;5.422;2023-02-12T09:34:00;104052.78;;;6.95;94.18
71964;BME280;59834;52.124;5.422;2023-02-12T09:36:28;104051.03;;;7.00;94.68
71964;BME280;59834;52.124;5.422;2023-02-12T09:38:54;104049.31;;;7.03;94.05
71964;BME280;59834;52.124;5.422;2023-02-12T09:44:31;104051.06;;;7.06;93.40
71964;BME280;59834;52.124;5.422;2023-02-12T09:47:25;104047.59;;;7.08;93.48
71964;BME280;59834;52.124;5.422;2023-02-12T09:50:11;104047.63;;;7.15;93.13
71964;BME280;59834;52.124;5.422;2023-02-12T09:52:43;104052.84;;;7.18;92.98
71964;BME280;59834;52.124;5.422;2023-02-12T09:55:13;104044.16;;;7.22;92.45
71964;BME280;59834;52.124;5.422;2023-02-12T09:57:41;104051.09;;;7.23;92.41
71964;BME280;59834;52.124;5.422;2023-02-12T10:02:41;104056.31;;;7.26;91.66
71964;BME280;59834;52.124;5.422;2023-02-12T10:05:16;104054.59;;;7.28;91.68
71964;BME280;59834;52.124;5.422;2023-02-12T10:07:56;104045.91;;;7.32;91.80
71964;BME280;59834;52.124;5.422;2023-02-12T10:24:48;104045.91;;;7.43;90.69
71964;BME280;59834;52.124;5.422;2023-02-12T10:27:35;104045.91;;;7.44;91.04
71964;BME280;59834;52.124;5.422;2023-02-12T10:30:17;104044.19;;;7.43;90.88
71964;BME280;59834;52.124;5.422;2023-02-12T10:32:45;104049.41;;;7.46;91.13
71964;BME280;59834;52.124;5.422;2023-02-12T10:35:15;104051.13;;;7.46;90.73
71964;BME280;59834;52.124;5.422;2023-02-12T10:38:02;104051.13;;;7.44;90.94
71964;BME280;59834;52.124;5.422;2023-02-12T10:40:33;104056.34;;;7.47;90.96
71964;BME280;59834;52.124;5.422;2023-02-12T10:43:01;104054.63;;;7.49;90.41
71964;BME280;59834;52.124;5.422;2023-02-12T10:45:29;104045.06;;;7.53;90.87
71964;BME280;59834;52.124;5.422;2023-02-12T10:56:19;104049.41;;;7.65;88.93
71964;BME280;59834;52.124;5.422;2023-02-12T10:58:51;104042.44;;;7.64;89.26
71964;BME280;59834;52.124;5.422;2023-02-12T11:01:25;104049.41;;;7.65;88.93
71964;BME280;59834;52.124;5.422;2023-02-12T11:03:54;104055.47;;;7.67;89.07
71964;BME280;59834;52.124;5.422;2023-02-12T11:06:27;104047.69;;;7.71;88.69
71964;BME280;59834;52.124;5.422;2023-02-12T11:08:55;104047.66;;;7.76;88.91
71964;BME280;59834;52.124;5.422;2023-02-12T11:11:28;104051.16;;;7.78;88.34
71964;BME280;59834;52.124;5.422;2023-02-12T11:13:58;104051.16;;;7.78;87.90
71964;BME280;59834;52.124;5.422;2023-02-12T11:16:31;104051.13;;;7.76;88.92
71964;BME280;59834;52.124;5.422;2023-02-12T11:19:22;104047.66;;;7.77;88.48
71964;BME280;59834;52.124;5.422;2023-02-12T11:21:49;104038.97;;;7.80;88.13
71964;BME280;59834;52.124;5.422;2023-02-12T11:24:34;104039.84;;;7.82;88.19
71964;BME280;59834;52.124;5.422;2023-02-12T11:29:43;104031.13;;;7.94;87.86
71964;BME280;59834;52.124;5.422;2023-02-12T11:32:18;104034.63;;;7.93;88.22
71964;BME280;59834;52.124;5.422;2023-02-12T11:35:15;104038.09;;;7.93;87.59
71964;BME280;59834;52.124;5.422;2023-02-12T11:37:45;104037.19;;;7.97;87.69
71964;BME280;59834;52.124;5.422;2023-02-12T11:40:22;104027.63;;;8.01;87.45
71964;BME280;59834;52.124;5.422;2023-02-12T11:42:53;104031.97;;;8.03;87.05
71964;BME280;59834;52.124;5.422;2023-02-12T11:45:30;104030.25;;;8.09;87.24
71964;BME280;59834;52.124;5.422;2023-02-12T11:47:58;104024.16;;;8.13;86.83
71964;BME280;59834;52.124;5.422;2023-02-12T11:50:27;104032.81;;;8.15;85.88
71964;BME280;59834;52.124;5.422;2023-02-12T11:53:01;104030.22;;;8.19;86.41
71964;BME280;59834;52.124;5.422;2023-02-12T11:55:37;104026.75;;;8.22;86.21
71964;BME280;59834;52.124;5.422;2023-02-12T11:58:16;104027.59;;;8.22;86.09
71964;BME280;59834;52.124;5.422;2023-02-12T12:01:05;104025.00;;;8.22;85.14
71964;BME280;59834;52.124;5.422;2023-02-12T12:14:35;104013.66;;;8.28;84.50
71964;BME280;59834;52.124;5.422;2023-02-12T12:17:38;104004.09;;;8.27;83.78
71964;BME280;59834;52.124;5.422;2023-02-12T12:20:32;104001.44;;;8.35;83.46
71964;BME280;59834;52.124;5.422;2023-02-12T12:23:15;104004.09;;;8.39;83.79
71964;BME280;59834;52.124;5.422;2023-02-12T12:25:48;104002.31;;;8.41;83.28
71964;BME280;59834;52.124;5.422;2023-02-12T12:28:39;104000.59;;;8.40;82.79
71964;BME280;59834;52.124;5.422;2023-02-12T12:31:30;103993.63;;;8.33;82.83
71964;BME280;59834;52.124;5.422;2023-02-12T12:34:19;103985.84;;;8.29;82.15
71964;BME280;59834;52.124;5.422;2023-02-12T12:37:17;103987.56;;;8.30;82.46
71964;BME280;59834;52.124;5.422;2023-02-12T12:43:12;103989.31;;;8.29;82.34
71964;BME280;59834;52.124;5.422;2023-02-12T12:46:02;103988.44;;;8.30;82.19
71964;BME280;59834;52.124;5.422;2023-02-12T12:51:59;103978.00;;;8.25;82.49
71964;BME280;59834;52.124;5.422;2023-02-12T13:00:37;103978.84;;;8.27;82.10
71964;BME280;59834;52.124;5.422;2023-02-12T13:11:51;103968.41;;;8.43;80.95
71964;BME280;59834;52.124;5.422;2023-02-12T13:17:41;103964.03;;;8.45;80.97
71964;BME280;59834;52.124;5.422;2023-02-12T13:23:14;103966.69;;;8.33;80.90
71964;BME280;59834;52.124;5.422;2023-02-12T13:28:38;103964.06;;;8.39;81.54
71964;BME280;59834;52.124;5.422;2023-02-12T13:31:08;103957.94;;;8.37;80.50
71964;BME280;59834;52.124;5.422;2023-02-12T13:33:59;103953.59;;;8.34;80.43
71964;BME280;59834;52.124;5.422;2023-02-12T13:36:26;103948.41;;;8.30;81.10
71964;BME280;59834;52.124;5.422;2023-02-12T13:39:06;103951.88;;;8.30;80.70
71964;BME280;59834;52.124;5.422;2023-02-12T13:41:34;103958.81;;;8.34;80.74
71964;BME280;59834;52.124;5.422;2023-02-12T13:44:35;103953.63;;;8.36;80.52
71964;BME280;59834;52.124;5.422;2023-02-12T13:49:48;103950.16;;;8.29;80.92
71964;BME280;59834;52.124;5.422;2023-02-12T13:52:42;103942.34;;;8.29;81.59
71964;BME280;59834;52.124;5.422;2023-02-12T13:57:40;103939.72;;;8.27;80.49
71964;BME280;59834;52.124;5.422;2023-02-12T14:03:12;103941.47;;;8.27;80.61
71964;BME280;59834;52.124;5.422;2023-02-12T14:05:40;103935.38;;;8.23;80.18
71964;BME280;59834;52.124;5.422;2023-02-12T14:26:07;103921.53;;;8.15;80.76
71964;BME280;59834;52.124;5.422;2023-02-12T14:29:05;103922.38;;;8.13;80.75
71964;BME280;59834;52.124;5.422;2023-02-12T14:31:40;103926.75;;;8.12;79.89
71964;BME280;59834;52.124;5.422;2023-02-12T14:36:37;103915.47;;;8.06;80.04
71964;BME280;59834;52.124;5.422;2023-02-12T14:41:51;103917.19;;;8.03;80.37
71964;BME280;59834;52.124;5.422;2023-02-12T14:46:57;103913.75;;;7.98;80.20
71964;BME280;59834;52.124;5.422;2023-02-12T14:49:32;103912.91;;;7.95;79.35
71964;BME280;59834;52.124;5.422;2023-02-12T14:52:21;103912.91;;;7.90;80.11
71964;BME280;59834;52.124;5.422;2023-02-12T14:55:17;103914.63;;;7.90;80.07
71964;BME280;59834;52.124;5.422;2023-02-12T14:57:45;103906.84;;;7.88;79.92
71964;BME280;59834;52.124;5.422;2023-02-12T15:00:20;103912.91;;;7.87;80.06
71964;BME280;59834;52.124;5.422;2023-02-12T15:03:00;103912.94;;;7.86;79.73
71964;BME280;59834;52.124;5.422;2023-02-12T15:05:36;103922.50;;;7.85;80.35
71964;BME280;59834;52.124;5.422;2023-02-12T15:08:10;103918.13;;;7.84;80.15
71964;BME280;59834;52.124;5.422;2023-02-12T15:10:47;103920.72;;;7.84;79.89
71964;BME280;59834;52.124;5.422;2023-02-12T15:13:17;103915.53;;;7.81;80.57
71964;BME280;59834;52.124;5.422;2023-02-12T15:16:01;103919.88;;;7.77;80.78
71964;BME280;59834;52.124;5.422;2023-02-12T15:21:15;103921.63;;;7.78;80.46
71964;BME280;59834;52.124;5.422;2023-02-12T15:23:55;103912.06;;;7.76;80.47
71964;BME280;59834;52.124;5.422;2023-02-12T15:26:24;103912.94;;;7.76;80.39
71964;BME280;59834;52.124;5.422;2023-02-12T15:28:52;103919.03;;;7.74;79.92
71964;BME280;59834;52.124;5.422;2023-02-12T15:31:25;103918.16;;;7.73;79.20
71964;BME280;59834;52.124;5.422;2023-02-12T15:33:54;103914.66;;;7.74;79.65
71964;BME280;59834;52.124;5.422;2023-02-12T15:36:24;103917.28;;;7.73;79.54
71964;BME280;59834;52.124;5.422;2023-02-12T15:38:53;103913.81;;;7.74;79.72
71964;BME280;59834;52.124;5.422;2023-02-12T15:43:56;103910.38;;;7.66;80.32
71964;BME280;59834;52.124;5.422;2023-02-12T15:46:23;103915.59;;;7.63;80.07
71964;BME280;59834;52.124;5.422;2023-02-12T15:48:49;103906.88;;;7.61;80.26
71964;BME280;59834;52.124;5.422;2023-02-12T15:51:26;103904.28;;;7.62;80.92
71964;BME280;59834;52.124;5.422;2023-02-12T15:53:57;103904.28;;;7.59;79.98
71964;BME280;59834;52.124;5.422;2023-02-12T15:56:26;103906.03;;;7.60;79.52
71964;BME280;59834;52.124;5.422;2023-02-12T15:58:57;103907.75;;;7.60;79.44
71964;BME280;59834;52.124;5.422;2023-02-12T16:01:33;103908.66;;;7.59;79.43
71964;BME280;59834;52.124;5.422;2023-02-12T16:04:02;103904.28;;;7.59;78.90